Time;durP1;ratioP1;P1;durP2;ratioP2;P2;SDS_P1;SDS_P2;PMS_P1;PMS_P2;Temp;Humidity;BMP_temperature;BMP_pressure;BME280_temperature;BME280_humidity;BME280_pressure;Samples;Min_cycle;Max_cycle;Signal;HPM_P1;HPM_P2
2023/12/03 00:01:33;;;;;;;92.93;23.45;;;;;;;;;;5062632;28;19927;-76
2023/12/03 00:03:59;;;;;;;;;;;;;;;;;;5084443;28;20052;-77
2023/12/03 00:06:25;;;;;;;99.38;25.90;;;;;;;;;;5068404;28;20383;-77
2023/12/03 00:08:51;;;;;;;103.72;24.33;;;;;;;;;;5057990;28;20076;-81
2023/12/03 00:11:17;;;;;;;109.05;25.05;;;;;;;;;;5036024;28;20090;-76
2023/12/03 00:13:43;;;;;;;;;;;;;;;;;;5071663;28;20044;-77
2023/12/03 00:16:09;;;;;;;133.23;26.98;;;;;;;;;;5047960;28;20006;-76
2023/12/03 00:18:35;;;;;;;95.15;23.88;;;;;;;;;;5063420;28;20047;-76
2023/12/03 00:21:01;;;;;;;;;;;;;;;;;;5089403;28;20058;-78
2023/12/03 00:23:27;;;;;;;93.50;25.35;;;;;;;;;;5053821;28;20003;-77
2023/12/03 00:25:53;;;;;;;;;;;;;;;;;;5067541;28;20118;-78
2023/12/03 00:28:19;;;;;;;88.25;22.52;;;;;;;;;;5061411;28;20058;-77
2023/12/03 00:30:45;;;;;;;;;;;;;;;;;;5045187;28;20045;-79
2023/12/03 00:33:11;;;;;;;69.53;22.60;;;;;;;;;;5070812;28;19916;-81
2023/12/03 00:35:37;;;;;;;71.85;23.55;;;;;;;;;;5084172;28;20075;-78
2023/12/03 00:38:03;;;;;;;69.53;23.88;;;;;;;;;;5055698;28;20052;-77
2023/12/03 00:40:29;;;;;;;;;;;;;;;;;;5073313;28;20051;-77
2023/12/03 00:42:55;;;;;;;77.13;23.30;;;;;;;;;;5090028;28;19919;-77
2023/12/03 00:45:22;;;;;;;;;;;;;;;;;;5055122;28;20133;-77
2023/12/03 00:47:48;;;;;;;71.20;22.33;;;;;;;;;;5090526;28;20381;-77
2023/12/03 00:50:14;;;;;;;60.90;21.15;;;;;;;;;;5090943;28;20274;-77
2023/12/03 00:52:41;;;;;;;62.40;22.00;;;;;;;;;;5073304;28;20043;-77
2023/12/03 00:55:06;;;;;;;;;;;;;;;;;;5066289;28;20040;-77
2023/12/03 00:57:34;;;;;;;63.47;21.70;;;;;;;;;;5065295;28;19920;-78
2023/12/03 01:00:00;;;;;;;60.08;22.00;;;;;;;;;;5071636;28;20051;-79
2023/12/03 01:02:26;;;;;;;;;;;;;;;;;;5074169;28;20039;-78
2023/12/03 01:04:52;;;;;;;79.30;23.85;;;;;;;;;;5046044;28;19965;-77
2023/12/03 01:07:18;;;;;;;;;;;;;;;;;;5073269;28;20150;-77
2023/12/03 01:09:44;;;;;;;69.88;21.80;;;;;;;;;;5072305;28;19920;-77
2023/12/03 01:12:10;;;;;;;;;;;;;;;;;;5072054;28;20466;-77
2023/12/03 01:14:36;;;;;;;66.47;21.00;;;;;;;;;;5045653;28;20475;-77
2023/12/03 01:17:02;;;;;;;;;;;;;;;;;;5070436;28;20513;-77
2023/12/03 01:19:28;;;;;;;69.60;23.38;;;;;;;;;;5059996;28;20042;-77
2023/12/03 01:21:54;;;;;;;;;;;;;;;;;;5073592;28;20137;-79
2023/12/03 01:24:20;;;;;;;75.70;23.85;;;;;;;;;;5067565;28;20373;-77
2023/12/03 01:26:49;;;;;;;96.57;24.63;;;;;;;;;;5080331;28;20098;-78
2023/12/03 01:29:15;;;;;;;;;;;;;;;;;;5055913;28;20054;-77
2023/12/03 01:31:42;;;;;;;108.55;26.05;;;;;;;;;;5071006;28;20003;-78
2023/12/03 01:34:07;;;;;;;;;;;;;;;;;;5054273;28;20056;-77
2023/12/03 01:36:34;;;;;;;99.32;26.65;;;;;;;;;;5046301;28;19981;-78
2023/12/03 01:39:00;;;;;;;;;;;;;;;;;;5068638;28;20040;-78
2023/12/03 01:41:26;;;;;;;134.32;27.50;;;;;;;;;;5067426;28;19967;-75
2023/12/03 01:43:54;;;;;;;110.00;26.80;;;;;;;;;;5065494;28;20044;-75
2023/12/03 01:46:21;;;;;;;85.68;26.85;;;;;;;;;;5055300;28;20083;-75
2023/12/03 01:48:48;;;;;;;82.35;26.73;;;;;;;;;;5084564;28;20093;-79
2023/12/03 01:51:14;;;;;;;81.53;26.38;;;;;;;;;;5072269;28;20105;-75
2023/12/03 01:53:40;;;;;;;;;;;;;;;;;;5054491;28;20044;-76
2023/12/03 01:56:06;;;;;;;76.93;26.27;;;;;;;;;;5048258;28;19920;-75
2023/12/03 01:58:33;;;;;;;76.43;25.50;;;;;;;;;;5046708;28;20051;-76
2023/12/03 02:00:58;;;;;;;;;;;;;;;;;;5066332;28;20074;-79
2023/12/03 02:03:28;;;;;;;78.70;26.00;;;;;;;;;;5089678;28;19920;-75
2023/12/03 02:06:04;;;;;;;103.95;26.35;;;;;;;;;;5086062;28;20052;-75
2023/12/03 02:08:31;;;;;;;107.55;24.92;;;;;;;;;;5090025;28;20044;-74
2023/12/03 02:10:57;;;;;;;144.35;28.35;;;;;;;;;;5089393;28;20044;-75
2023/12/03 02:13:24;;;;;;;103.20;26.80;;;;;;;;;;5090889;28;20481;-75
2023/12/03 02:15:50;;;;;;;110.78;26.52;;;;;;;;;;5076366;28;20056;-76
2023/12/03 02:18:16;;;;;;;;;;;;;;;;;;5053923;28;20046;-75
2023/12/03 02:20:42;;;;;;;151.57;29.52;;;;;;;;;;5074168;28;20010;-75
2023/12/03 02:23:09;;;;;;;139.50;28.30;;;;;;;;;;5058701;28;20048;-75
2023/12/03 02:25:35;;;;;;;;;;;;;;;;;;5074779;28;20047;-75
2023/12/03 02:28:01;;;;;;;221.32;32.60;;;;;;;;;;5058334;28;19920;-75
2023/12/03 02:30:27;;;;;;;235.40;35.67;;;;;;;;;;5085512;28;20209;-75
2023/12/03 02:32:56;;;;;;;271.48;37.10;;;;;;;;;;5093892;28;20039;-74
2023/12/03 02:35:22;;;;;;;;;;;;;;;;;;5092231;28;20264;-75
2023/12/03 02:37:48;;;;;;;265.38;37.28;;;;;;;;;;5067919;28;20381;-76
2023/12/03 02:40:14;;;;;;;;;;;;;;;;;;5071386;28;20620;-74
2023/12/03 02:42:40;;;;;;;195.98;28.55;;;;;;;;;;5075237;28;20033;-75
2023/12/03 02:45:06;;;;;;;226.75;31.85;;;;;;;;;;5075021;28;20106;-76
2023/12/03 02:47:32;;;;;;;277.45;37.58;;;;;;;;;;5059103;28;20048;-75
2023/12/03 02:49:58;;;;;;;;;;;;;;;;;;5056193;28;20511;-75
2023/12/03 02:52:24;;;;;;;186.55;30.95;;;;;;;;;;5046195;28;20011;-74
2023/12/03 02:54:50;;;;;;;;;;;;;;;;;;5062171;28;20045;-75
2023/12/03 02:57:16;;;;;;;180.25;31.08;;;;;;;;;;5047013;28;19932;-74
2023/12/03 02:59:42;;;;;;;;;;;;;;;;;;5045877;28;20052;-75
2023/12/03 03:02:08;;;;;;;223.77;32.47;;;;;;;;;;5055364;28;19924;-75
2023/12/03 03:04:34;;;;;;;;;;;;;;;;;;5056577;28;20123;-75
2023/12/03 03:07:00;;;;;;;168.00;28.27;;;;;;;;;;5052077;28;20536;-77
2023/12/03 03:09:27;;;;;;;117.18;26.50;;;;;;;;;;5051678;28;20556;-75
2023/12/03 03:11:54;;;;;;;188.38;31.50;;;;;;;;;;5053625;28;20041;-76
2023/12/03 03:14:24;;;;;;;192.45;32.17;;;;;;;;;;5053029;28;20539;-75
2023/12/03 03:16:50;;;;;;;165.02;31.33;;;;;;;;;;5052177;28;20485;-75
2023/12/03 03:19:16;;;;;;;219.10;33.38;;;;;;;;;;5054758;28;20036;-75
2023/12/03 03:21:42;;;;;;;;;;;;;;;;;;5054809;28;20557;-74
2023/12/03 03:24:12;;;;;;;141.27;28.98;;;;;;;;;;5054629;28;19920;-76
2023/12/03 03:26:39;;;;;;;153.10;30.00;;;;;;;;;;5057525;28;20068;-75
2023/12/03 03:29:06;;;;;;;182.70;29.80;;;;;;;;;;5061645;28;20056;-75
2023/12/03 03:31:32;;;;;;;167.23;31.15;;;;;;;;;;5070744;28;20509;-74
2023/12/03 03:33:58;;;;;;;187.30;30.25;;;;;;;;;;5054624;28;20486;-75
2023/12/03 03:36:27;;;;;;;164.88;28.02;;;;;;;;;;5057824;28;20041;-75
2023/12/03 03:38:59;;;;;;;138.85;26.13;;;;;;;;;;5051881;28;20445;-75
2023/12/03 03:41:25;;;;;;;;;;;;;;;;;;5053481;28;20125;-75
2023/12/03 03:43:51;;;;;;;143.70;29.20;;;;;;;;;;5051316;28;20018;-74
2023/12/03 03:46:18;;;;;;;192.20;31.65;;;;;;;;;;5051583;28;20059;-75
2023/12/03 03:48:44;;;;;;;;;;;;;;;;;;5032681;28;20049;-76
2023/12/03 03:51:13;;;;;;;175.20;29.60;;;;;;;;;;5066395;28;19974;-80
2023/12/03 03:53:39;;;;;;;;;;;;;;;;;;5063601;28;20065;-76
2023/12/03 03:56:09;;;;;;;141.25;27.05;;;;;;;;;;5051604;28;19943;-75
2023/12/03 03:58:36;;;;;;;166.27;27.90;;;;;;;;;;5069298;28;20044;-75
2023/12/03 04:01:07;;;;;;;163.18;29.52;;;;;;;;;;5054882;28;20094;-75
2023/12/03 04:03:33;;;;;;;129.98;25.55;;;;;;;;;;5071604;28;20442;-75
2023/12/03 04:05:59;;;;;;;;;;;;;;;;;;5071328;28;20086;-75
2023/12/03 04:08:26;;;;;;;106.40;24.58;;;;;;;;;;5066799;28;19928;-75
2023/12/03 04:10:52;;;;;;;107.85;24.55;;;;;;;;;;5060124;28;20041;-75
2023/12/03 04:13:18;;;;;;;;;;;;;;;;;;5045679;28;20048;-75
2023/12/03 04:15:44;;;;;;;133.45;25.60;;;;;;;;;;5070205;28;19920;-75
2023/12/03 04:18:10;;;;;;;;;;;;;;;;;;5068025;28;20041;-75
2023/12/03 04:20:36;;;;;;;114.00;25.02;;;;;;;;;;5034200;28;20010;-76
2023/12/03 04:23:02;;;;;;;;;;;;;;;;;;5051637;28;20041;-75
2023/12/03 04:25:28;;;;;;;103.05;25.13;;;;;;;;;;5050756;28;19931;-75
2023/12/03 04:27:54;;;;;;;119.93;25.90;;;;;;;;;;5050488;28;20084;-75
2023/12/03 04:30:20;;;;;;;;;;;;;;;;;;5051967;28;20090;-76
2023/12/03 04:32:46;;;;;;;126.20;26.10;;;;;;;;;;5037292;28;20361;-75
2023/12/03 04:35:13;;;;;;;122.90;27.35;;;;;;;;;;5036095;28;20053;-75
2023/12/03 04:37:39;;;;;;;104.60;24.98;;;;;;;;;;5070066;28;20674;-76
2023/12/03 04:40:06;;;;;;;108.97;25.33;;;;;;;;;;5062113;28;20106;-75
2023/12/03 04:42:32;;;;;;;130.63;27.50;;;;;;;;;;5053195;28;20040;-75
2023/12/03 04:44:58;;;;;;;;;;;;;;;;;;5053874;28;20049;-76
2023/12/03 04:47:24;;;;;;;94.43;25.42;;;;;;;;;;5066396;28;19943;-75
2023/12/03 04:49:50;;;;;;;155.52;27.73;;;;;;;;;;5053616;28;20059;-75
2023/12/03 04:52:16;;;;;;;113.05;25.42;;;;;;;;;;5045113;28;20072;-76
2023/12/03 04:54:42;;;;;;;;;;;;;;;;;;5067931;28;20053;-75
2023/12/03 04:57:08;;;;;;;91.00;22.55;;;;;;;;;;5049249;28;19933;-75
2023/12/03 04:59:35;;;;;;;104.22;23.73;;;;;;;;;;5068412;28;20048;-77
2023/12/03 05:02:00;;;;;;;;;;;;;;;;;;5048392;28;20068;-75
2023/12/03 05:04:27;;;;;;;92.00;21.73;;;;;;;;;;5068714;28;19967;-75
2023/12/03 05:06:53;;;;;;;88.53;20.63;;;;;;;;;;5037589;28;20046;-76
2023/12/03 05:09:19;;;;;;;77.88;20.50;;;;;;;;;;5018893;28;20056;-75
2023/12/03 05:11:46;;;;;;;75.40;20.02;;;;;;;;;;5050359;28;20053;-75
2023/12/03 05:14:12;;;;;;;69.57;20.73;;;;;;;;;;5049272;28;20470;-75
2023/12/03 05:16:38;;;;;;;75.00;21.35;;;;;;;;;;5040549;28;20052;-75
2023/12/03 05:19:10;;;;;;;79.05;20.75;;;;;;;;;;4999578;28;20107;-76
2023/12/03 05:21:36;;;;;;;;;;;;;;;;;;5030485;28;20041;-75
2023/12/03 05:24:02;;;;;;;83.82;20.40;;;;;;;;;;5019152;28;19921;-75
2023/12/03 05:26:28;;;;;;;;;;;;;;;;;;5049093;28;20085;-79
2023/12/03 05:28:54;;;;;;;71.80;19.17;;;;;;;;;;5045464;28;19968;-75
2023/12/03 05:31:20;;;;;;;;;;;;;;;;;;5030531;28;20127;-75
2023/12/03 05:33:46;;;;;;;55.13;16.33;;;;;;;;;;5046615;28;20912;-77
2023/12/03 05:36:12;;;;;;;;;;;;;;;;;;5035900;28;20032;-75
2023/12/03 05:38:38;;;;;;;65.00;17.85;;;;;;;;;;5049060;28;20023;-75
2023/12/03 05:41:04;;;;;;;;;;;;;;;;;;5050937;28;20045;-75
2023/12/03 05:43:30;;;;;;;65.65;17.52;;;;;;;;;;5069302;28;19920;-79
2023/12/03 05:45:56;;;;;;;;;;;;;;;;;;5032749;28;20037;-75
2023/12/03 05:48:22;;;;;;;68.63;18.42;;;;;;;;;;5025772;28;20373;-75
2023/12/03 05:50:48;;;;;;;;;;;;;;;;;;5044356;28;20041;-75
2023/12/03 05:53:14;;;;;;;61.88;18.05;;;;;;;;;;5036353;28;19928;-75
2023/12/03 05:55:40;;;;;;;;;;;;;;;;;;5029913;28;20466;-76
2023/12/03 05:58:06;;;;;;;60.88;18.58;;;;;;;;;;5052806;28;19970;-75
2023/12/03 06:00:32;;;;;;;64.57;19.33;;;;;;;;;;5052646;28;20045;-79
2023/12/03 06:02:59;;;;;;;;;;;;;;;;;;5039898;28;20049;-75
2023/12/03 06:05:25;;;;;;;65.78;17.55;;;;;;;;;;5035339;28;19976;-75
2023/12/03 06:07:51;;;;;;;68.25;18.75;;;;;;;;;;5041217;28;20053;-75
2023/12/03 06:10:17;;;;;;;;;;;;;;;;;;5053936;28;20056;-76
2023/12/03 06:12:43;;;;;;;67.22;18.73;;;;;;;;;;5060242;28;19927;-78
2023/12/03 06:15:09;;;;;;;;;;;;;;;;;;5053686;28;20090;-75
2023/12/03 06:17:35;;;;;;;71.80;19.65;;;;;;;;;;5069723;28;19920;-75
2023/12/03 06:20:02;;;;;;;60.33;16.90;;;;;;;;;;5069411;28;20052;-76
2023/12/03 06:22:27;;;;;;;;;;;;;;;;;;5030160;28;20041;-75
2023/12/03 06:24:54;;;;;;;60.22;16.42;;;;;;;;;;5051303;28;20388;-75
2023/12/03 06:27:20;;;;;;;66.57;18.40;;;;;;;;;;5032626;28;20042;-75
2023/12/03 06:29:46;;;;;;;;;;;;;;;;;;5000916;28;20053;-76
2023/12/03 06:32:12;;;;;;;62.22;17.73;;;;;;;;;;5021608;28;20005;-78
2023/12/03 06:34:38;;;;;;;57.17;18.75;;;;;;;;;;5023649;28;20133;-75
2023/12/03 06:37:04;;;;;;;;;;;;;;;;;;5033946;28;20049;-75
2023/12/03 06:39:30;;;;;;;60.33;18.05;;;;;;;;;;5033526;28;19928;-75
2023/12/03 06:41:56;;;;;;;58.42;16.67;;;;;;;;;;5032163;28;20045;-75
2023/12/03 06:44:22;;;;;;;;;;;;;;;;;;5042660;28;20048;-76
2023/12/03 06:46:48;;;;;;;54.08;16.02;;;;;;;;;;5032557;28;20007;-75
2023/12/03 06:49:14;;;;;;;64.15;19.15;;;;;;;;;;5042235;28;20163;-75
2023/12/03 06:51:40;;;;;;;;;;;;;;;;;;5033166;28;20402;-76
2023/12/03 06:54:06;;;;;;;59.95;18.10;;;;;;;;;;5035973;28;20003;-75
2023/12/03 06:56:33;;;;;;;;;;;;;;;;;;5042529;28;20114;-75
2023/12/03 06:58:59;;;;;;;69.20;19.37;;;;;;;;;;5059425;28;20531;-75
2023/12/03 07:01:25;;;;;;;72.65;18.30;;;;;;;;;;5040546;28;20291;-75
2023/12/03 07:03:51;;;;;;;;;;;;;;;;;;5033295;28;20081;-75
2023/12/03 07:06:17;;;;;;;80.45;20.95;;;;;;;;;;5041794;28;19970;-75
2023/12/03 07:08:44;;;;;;;;;;;;;;;;;;5044309;28;20053;-76
2023/12/03 07:11:10;;;;;;;;;;;;;;;;;;5069353;28;19928;-75
2023/12/03 07:13:36;;;;;;;80.57;21.58;;;;;;;;;;5035220;28;20294;-75
2023/12/03 07:16:02;;;;;;;;;;;;;;;;;;5042545;28;20138;-75
2023/12/03 07:18:28;;;;;;;91.07;21.08;;;;;;;;;;5033929;28;19975;-75
2023/12/03 07:20:54;;;;;;;;;;;;;;;;;;5050165;28;20041;-75
2023/12/03 07:23:20;;;;;;;83.45;21.63;;;;;;;;;;5034888;28;20354;-76
2023/12/03 07:25:47;;;;;;;85.38;20.58;;;;;;;;;;5065345;28;20625;-76
2023/12/03 07:28:13;;;;;;;80.15;20.95;;;;;;;;;;5043505;28;20068;-75
2023/12/03 07:30:39;;;;;;;;;;;;;;;;;;5000252;28;20060;-75
2023/12/03 07:33:05;;;;;;;82.13;20.85;;;;;;;;;;5041235;28;19924;-75
2023/12/03 07:35:31;;;;;;;;;;;;;;;;;;5035723;28;20498;-75
2023/12/03 07:38:00;;;;;;;79.53;20.42;;;;;;;;;;5048498;28;19929;-75
2023/12/03 07:40:26;;;;;;;;;;;;;;;;;;5050684;28;20124;-76
2023/12/03 07:42:52;;;;;;;80.38;20.02;;;;;;;;;;5029114;28;20404;-75
2023/12/03 07:45:18;;;;;;;;;;;;;;;;;;5065173;28;20081;-76
2023/12/03 07:47:44;;;;;;;79.57;20.27;;;;;;;;;;5065915;28;20401;-79
2023/12/03 07:50:10;;;;;;;79.63;20.27;;;;;;;;;;5048666;28;20073;-75
2023/12/03 07:52:36;;;;;;;;;;;;;;;;;;5050247;28;20076;-75
2023/12/03 07:55:02;;;;;;;71.68;18.50;;;;;;;;;;5026086;28;19963;-75
2023/12/03 07:57:28;;;;;;;;;;;;;;;;;;5038956;28;20041;-75
2023/12/03 07:59:54;;;;;;;66.55;18.30;;;;;;;;;;5044918;28;19921;-72
2023/12/03 08:02:22;;;;;;;;;;;;;;;;;;5029882;28;20501;-76
2023/12/03 08:04:51;;;;;;;73.15;18.92;;;;;;;;;;5040574;28;19921;-73
2023/12/03 08:07:17;;;;;;;75.25;19.50;;;;;;;;;;5063176;28;20053;-72
2023/12/03 08:09:43;;;;;;;;;;;;;;;;;;5029449;28;20140;-75
2023/12/03 08:12:09;;;;;;;60.20;17.83;;;;;;;;;;5064748;28;20423;-75
2023/12/03 08:14:35;;;;;;;;;;;;;;;;;;5052931;28;20057;-75
2023/12/03 08:17:01;;;;;;;62.83;17.70;;;;;;;;;;5032621;28;20317;-75
2023/12/03 08:19:27;;;;;;;;;;;;;;;;;;5049828;28;20045;-75
2023/12/03 08:21:53;;;;;;;75.88;19.40;;;;;;;;;;5038583;28;19970;-75
2023/12/03 08:24:19;;;;;;;;;;;;;;;;;;5002308;28;20049;-75
2023/12/03 08:26:45;;;;;;;75.28;21.25;;;;;;;;;;5034119;28;20282;-76
2023/12/03 08:29:12;;;;;;;;;;;;;;;;;;5024042;28;20148;-75
2023/12/03 08:31:38;;;;;;;66.07;18.73;;;;;;;;;;5050857;28;19975;-75
2023/12/03 08:34:04;;;;;;;59.97;18.52;;;;;;;;;;5049855;28;20099;-78
2023/12/03 08:36:31;;;;;;;;;;;;;;;;;;5048872;28;20060;-75
2023/12/03 08:38:57;;;;;;;65.30;19.07;;;;;;;;;;5048703;28;19928;-75
2023/12/03 08:41:23;;;;;;;;;;;;;;;;;;5026920;28;20037;-72
2023/12/03 08:43:52;;;;;;;73.90;20.65;;;;;;;;;;5047727;28;19996;-76
2023/12/03 08:46:20;;;;;;;69.32;20.00;;;;;;;;;;5047627;28;20049;-75
2023/12/03 08:48:46;;;;;;;64.30;20.92;;;;;;;;;;5024048;28;20060;-75
2023/12/03 08:51:13;;;;;;;76.63;21.70;;;;;;;;;;5040214;28;20049;-73
2023/12/03 08:53:39;;;;;;;87.47;22.75;;;;;;;;;;5058273;28;20037;-75
2023/12/03 08:56:05;;;;;;;;;;;;;;;;;;5031059;28;20106;-76
2023/12/03 08:58:31;;;;;;;60.70;19.67;;;;;;;;;;5031217;28;20003;-75
2023/12/03 09:01:03;;;;;;;66.53;20.77;;;;;;;;;;5034783;28;20174;-75
2023/12/03 09:03:30;;;;;;;75.53;21.58;;;;;;;;;;5039442;28;20128;-73
2023/12/03 09:05:56;;;;;;;;;;;;;;;;;;5043510;28;20046;-75
2023/12/03 09:08:28;;;;;;;76.68;23.20;;;;;;;;;;5039051;28;19928;-75
2023/12/03 09:10:57;;;;;;;68.03;22.27;;;;;;;;;;5070101;28;20045;-75
2023/12/03 09:13:24;;;;;;;;;;;;;;;;;;5068599;28;20040;-74
2023/12/03 09:15:51;;;;;;;64.65;22.00;;;;;;;;;;5047554;28;20043;-75
2023/12/03 09:18:17;;;;;;;66.30;22.77;;;;;;;;;;5049180;28;20498;-73
2023/12/03 09:20:43;;;;;;;;;;;;;;;;;;5037813;28;20048;-75
2023/12/03 09:23:09;;;;;;;66.05;22.60;;;;;;;;;;5052405;28;19926;-75
2023/12/03 09:25:35;;;;;;;;;;;;;;;;;;5054246;28;20056;-74
2023/12/03 09:28:01;;;;;;;65.50;22.80;;;;;;;;;;5051607;28;19920;-75
2023/12/03 09:30:27;;;;;;;;;;;;;;;;;;5066525;28;20050;-74
2023/12/03 09:32:53;;;;;;;54.95;21.80;;;;;;;;;;5058678;28;19920;-74
2023/12/03 09:35:20;;;;;;;;;;;;;;;;;;5072431;28;20059;-76
2023/12/03 09:37:46;;;;;;;53.25;22.60;;;;;;;;;;5047927;28;19960;-77
2023/12/03 09:40:19;;;;;;;52.88;22.60;;;;;;;;;;5046972;28;20115;-76
2023/12/03 09:42:45;;;;;;;;;;;;;;;;;;5047611;28;20087;-77
2023/12/03 09:45:12;;;;;;;55.25;23.20;;;;;;;;;;5031011;28;19924;-78
2023/12/03 09:47:38;;;;;;;50.45;22.23;;;;;;;;;;5016462;28;20068;-76
2023/12/03 09:50:16;;;;;;;54.03;22.83;;;;;;;;;;5069327;28;20057;-75
2023/12/03 09:52:43;;;;;;;50.55;22.05;;;;;;;;;;5043418;28;20033;-76
2023/12/03 09:55:14;;;;;;;50.95;22.70;;;;;;;;;;5033875;28;20047;-78
2023/12/03 09:57:42;;;;;;;54.35;22.70;;;;;;;;;;5043484;28;20513;-74
2023/12/03 10:00:08;;;;;;;49.75;22.90;;;;;;;;;;5068270;28;20524;-74
2023/12/03 10:02:34;;;;;;;46.53;22.20;;;;;;;;;;5036523;28;20044;-75
2023/12/03 10:05:01;;;;;;;51.25;22.67;;;;;;;;;;5049483;28;20059;-76
2023/12/03 10:07:29;;;;;;;54.63;22.83;;;;;;;;;;5058087;28;20037;-74
2023/12/03 10:09:58;;;;;;;54.90;23.95;;;;;;;;;;5043051;28;20068;-74
2023/12/03 10:12:26;;;;;;;50.92;23.10;;;;;;;;;;5051355;28;20049;-74
2023/12/03 10:14:52;;;;;;;49.92;21.75;;;;;;;;;;5048065;28;20045;-74
2023/12/03 10:17:21;;;;;;;;;;;;;;;;;;5043064;28;20249;-75
2023/12/03 10:19:47;;;;;;;48.95;22.05;;;;;;;;;;5051124;28;19920;-75
2023/12/03 10:22:13;;;;;;;;;;;;;;;;;;5044832;28;20524;-75
2023/12/03 10:24:46;;;;;;;42.83;20.65;;;;;;;;;;5043336;28;19928;-74
2023/12/03 10:27:12;;;;;;;39.92;19.50;;;;;;;;;;5038398;28;20165;-75
2023/12/03 10:29:39;;;;;;;42.78;21.30;;;;;;;;;;5013344;28;20106;-74
2023/12/03 10:32:07;;;;;;;41.05;20.52;;;;;;;;;;5044139;28;20036;-74
2023/12/03 10:34:33;;;;;;;42.30;19.98;;;;;;;;;;5065412;28;20454;-74
2023/12/03 10:37:01;;;;;;;43.88;20.08;;;;;;;;;;5069588;28;20463;-75
2023/12/03 10:39:27;;;;;;;41.92;20.73;;;;;;;;;;5048793;28;20032;-76
2023/12/03 10:41:53;;;;;;;;;;;;;;;;;;5050364;28;20389;-76
2023/12/03 10:44:24;;;;;;;39.67;18.95;;;;;;;;;;5045005;28;19920;-75
2023/12/03 10:46:53;;;;;;;39.50;18.13;;;;;;;;;;5064611;28;20044;-76
2023/12/03 10:49:19;;;;;;;;;;;;;;;;;;5055762;28;20047;-75
2023/12/03 10:51:48;;;;;;;38.63;17.98;;;;;;;;;;5056274;28;19924;-75
2023/12/03 10:54:14;;;;;;;37.30;18.30;;;;;;;;;;5064590;28;20105;-73
2023/12/03 10:56:42;;;;;;;;;;;;;;;;;;5025209;28;20045;-78
2023/12/03 10:59:16;;;;;;;39.30;18.17;;;;;;;;;;5070522;28;20015;-73
2023/12/03 11:01:47;;;;;;;38.22;18.63;;;;;;;;;;5038839;28;20059;-77
2023/12/03 11:04:34;;;;;;;41.83;19.40;;;;;;;;;;5052835;28;20079;-73
2023/12/03 11:07:01;;;;;;;38.47;18.58;;;;;;;;;;5055348;28;20045;-73
2023/12/03 11:09:27;;;;;;;43.97;19.73;;;;;;;;;;5072491;28;20060;-73
2023/12/03 11:11:54;;;;;;;42.17;18.45;;;;;;;;;;5017683;28;20048;-75
2023/12/03 11:14:20;;;;;;;40.78;19.13;;;;;;;;;;5045926;28;20045;-73
2023/12/03 11:17:02;;;;;;;40.22;18.20;;;;;;;;;;5054320;28;20045;-73
2023/12/03 11:19:31;;;;;;;39.92;18.42;;;;;;;;;;5040834;28;20087;-74
2023/12/03 11:21:57;;;;;;;37.85;17.65;;;;;;;;;;5063995;28;20468;-74
2023/12/03 11:24:26;;;;;;;40.35;18.23;;;;;;;;;;5070796;28;20752;-73
2023/12/03 11:26:52;;;;;;;36.78;16.27;;;;;;;;;;5047826;28;20072;-75
2023/12/03 11:29:18;;;;;;;;;;;;;;;;;;5026599;28;20095;-74
2023/12/03 11:31:44;;;;;;;40.15;17.77;;;;;;;;;;5025147;28;19963;-73
2023/12/03 11:34:10;;;;;;;;;;;;;;;;;;5060657;28;20128;-75
2023/12/03 11:36:37;;;;;;;42.47;19.63;;;;;;;;;;5058172;28;19920;-74
2023/12/03 11:39:04;;;;;;;41.83;19.90;;;;;;;;;;5051958;28;20123;-75
2023/12/03 11:41:32;;;;;;;45.38;20.23;;;;;;;;;;5062094;28;20040;-75
2023/12/03 11:44:17;;;;;;;55.63;23.75;;;;;;;;;;5065362;28;20165;-75
2023/12/03 11:46:48;;;;;;;50.67;20.65;;;;;;;;;;5072921;28;20128;-75
2023/12/03 11:49:14;;;;;;;51.65;21.67;;;;;;;;;;5056674;28;20048;-75
2023/12/03 11:51:40;;;;;;;53.38;21.63;;;;;;;;;;5048923;28;20045;-75
2023/12/03 11:54:07;;;;;;;57.38;23.20;;;;;;;;;;5048706;28;20040;-78
2023/12/03 11:56:34;;;;;;;52.72;21.70;;;;;;;;;;5071575;28;20040;-75
2023/12/03 11:59:00;;;;;;;49.53;22.77;;;;;;;;;;5061110;28;20042;-75
2023/12/03 12:01:26;;;;;;;53.15;21.70;;;;;;;;;;5058864;28;20044;-74
2023/12/03 12:03:52;;;;;;;;;;;;;;;;;;5054542;28;20056;-73
2023/12/03 12:06:26;;;;;;;59.88;22.98;;;;;;;;;;5046674;28;19924;-74
2023/12/03 12:08:53;;;;;;;52.65;22.30;;;;;;;;;;5053033;28;20052;-74
2023/12/03 12:11:18;;;;;;;;;;;;;;;;;;5032597;28;20110;-75
2023/12/03 12:13:45;;;;;;;52.70;21.98;;;;;;;;;;5071491;28;19920;-76
2023/12/03 12:16:12;;;;;;;49.50;21.73;;;;;;;;;;5056835;28;20478;-78
2023/12/03 12:18:38;;;;;;;46.55;19.50;;;;;;;;;;5044986;28;20052;-75
2023/12/03 12:21:04;;;;;;;;;;;;;;;;;;5051520;28;20060;-76
2023/12/03 12:23:30;;;;;;;42.00;18.90;;;;;;;;;;5034606;28;19921;-72
2023/12/03 12:25:56;;;;;;;38.80;18.10;;;;;;;;;;5070911;28;20044;-75
2023/12/03 12:28:23;;;;;;;;;;;;;;;;;;5040109;28;20044;-79
2023/12/03 12:30:58;;;;;;;42.35;18.00;;;;;;;;;;5049007;28;19932;-77
2023/12/03 12:33:28;;;;;;;40.08;17.60;;;;;;;;;;5049744;28;20113;-77
2023/12/03 12:35:59;;;;;;;35.58;16.15;;;;;;;;;;5051342;28;20140;-78
2023/12/03 12:38:26;;;;;;;36.30;16.80;;;;;;;;;;5065098;28;20485;-76
2023/12/03 12:40:52;;;;;;;;;;;;;;;;;;5051089;28;20036;-76
2023/12/03 12:43:27;;;;;;;29.10;14.63;;;;;;;;;;5049380;28;19919;-77
2023/12/03 12:45:56;;;;;;;33.63;16.48;;;;;;;;;;5065653;28;20049;-77
2023/12/03 12:48:23;;;;;;;32.80;16.00;;;;;;;;;;5026891;28;20044;-78
2023/12/03 12:50:51;;;;;;;32.90;16.58;;;;;;;;;;5046510;28;20065;-77
2023/12/03 12:53:25;;;;;;;31.02;15.10;;;;;;;;;;5045956;28;20127;-77
2023/12/03 12:55:58;;;;;;;30.88;14.88;;;;;;;;;;5059114;28;20052;-76
2023/12/03 12:58:24;;;;;;;30.48;15.45;;;;;;;;;;5050011;28;20056;-76
2023/12/03 13:01:02;;;;;;;30.98;14.95;;;;;;;;;;5052565;28;20053;-78
2023/12/03 13:03:33;;;;;;;28.55;14.75;;;;;;;;;;5070053;28;20048;-76
2023/12/03 13:05:59;;;;;;;28.85;14.07;;;;;;;;;;5037003;28;20052;-76
2023/12/03 13:08:25;;;;;;;28.48;13.95;;;;;;;;;;5060994;28;20048;-76
2023/12/03 13:10:57;;;;;;;29.15;12.68;;;;;;;;;;5053909;28;20563;-76
2023/12/03 13:13:36;;;;;;;26.45;12.85;;;;;;;;;;5052360;28;20449;-76
2023/12/03 13:16:07;;;;;;;29.27;13.65;;;;;;;;;;5058472;28;20059;-76
2023/12/03 13:18:36;;;;;;;25.38;13.18;;;;;;;;;;5048515;28;20115;-76
2023/12/03 13:21:06;;;;;;;26.73;12.40;;;;;;;;;;5071705;28;20143;-76
2023/12/03 13:23:40;;;;;;;28.75;13.77;;;;;;;;;;5040315;28;20044;-76
2023/12/03 13:26:16;;;;;;;27.58;12.18;;;;;;;;;;5054966;28;20097;-76
2023/12/03 13:28:44;;;;;;;29.13;13.68;;;;;;;;;;5046967;28;20064;-76
2023/12/03 13:31:10;;;;;;;27.95;12.77;;;;;;;;;;5064788;28;20154;-76
2023/12/03 13:33:36;;;;;;;27.48;12.63;;;;;;;;;;5035401;28;20049;-76
2023/12/03 13:36:16;;;;;;;28.85;12.63;;;;;;;;;;5071142;28;20037;-76
2023/12/03 13:38:48;;;;;;;27.40;12.48;;;;;;;;;;5053006;28;20533;-75
2023/12/03 13:41:32;;;;;;;27.02;12.77;;;;;;;;;;5052428;28;20040;-77
2023/12/03 13:44:04;;;;;;;26.05;12.38;;;;;;;;;;5049381;28;20040;-73
2023/12/03 13:46:30;;;;;;;;;;;;;;;;;;5054351;28;20055;-76
2023/12/03 13:48:59;;;;;;;27.20;11.87;;;;;;;;;;5066623;28;19935;-76
2023/12/03 13:51:47;;;;;;;29.75;12.15;;;;;;;;;;5030432;28;20481;-77
2023/12/03 13:54:26;;;;;;;28.10;12.80;;;;;;;;;;5073341;28;20036;-77
2023/12/03 13:56:57;;;;;;;30.88;12.60;;;;;;;;;;5055717;28;20417;-79
2023/12/03 13:59:25;;;;;;;28.15;11.80;;;;;;;;;;5031048;28;20045;-79
2023/12/03 14:01:51;;;;;;;27.45;11.40;;;;;;;;;;5069605;28;20056;-77
2023/12/03 14:04:31;;;;;;;33.03;12.65;;;;;;;;;;5065687;28;20094;-78
2023/12/03 14:07:04;;;;;;;30.35;12.88;;;;;;;;;;5060025;28;20051;-79
2023/12/03 14:09:35;;;;;;;26.23;12.30;;;;;;;;;;5083110;28;20131;-77
2023/12/03 14:12:10;;;;;;;32.95;13.02;;;;;;;;;;5056271;28;20055;-78
2023/12/03 14:14:39;;;;;;;26.92;12.70;;;;;;;;;;5056357;28;20052;-77
2023/12/03 14:17:09;;;;;;;34.05;13.65;;;;;;;;;;5066608;28;20624;-77
2023/12/03 14:19:45;;;;;;;28.13;11.90;;;;;;;;;;5048034;28;20043;-78
2023/12/03 14:22:29;;;;;;;26.98;12.75;;;;;;;;;;5058301;28;20141;-79
2023/12/03 14:25:05;;;;;;;33.35;13.45;;;;;;;;;;5053140;28;20501;-78
2023/12/03 14:27:45;;;;;;;34.60;13.40;;;;;;;;;;5060800;28;20061;-78
2023/12/03 14:30:15;;;;;;;30.60;13.23;;;;;;;;;;5076066;28;20056;-78
2023/12/03 14:33:10;;;;;;;30.10;12.95;;;;;;;;;;5070940;28;20109;-77
2023/12/03 14:35:37;;;;;;;31.02;13.15;;;;;;;;;;5086796;28;20052;-78
2023/12/03 14:38:04;;;;;;;33.03;12.25;;;;;;;;;;5056413;28;20391;-78
2023/12/03 14:41:02;;;;;;;29.88;12.85;;;;;;;;;;5062582;28;20056;-78
2023/12/03 14:43:49;;;;;;;26.00;12.38;;;;;;;;;;5063076;28;20114;-81
2023/12/03 14:46:24;;;;;;;29.25;12.77;;;;;;;;;;5063989;28;20060;-78
2023/12/03 14:49:15;;;;;;;34.60;14.98;;;;;;;;;;5081050;28;20142;-78
2023/12/03 14:52:01;;;;;;;31.30;12.32;;;;;;;;;;5056539;28;20090;-79